sensor_id;sensor_type;location;lat;lon;timestamp;temperature;humidity
19437;DHT22;9854;50.968;4.168;2023-05-07T00:01:44;18.30;99.90
19437;DHT22;9854;50.968;4.168;2023-05-07T00:04:10;18.30;99.90
19437;DHT22;9854;50.968;4.168;2023-05-07T00:06:36;18.20;99.90
19437;DHT22;9854;50.968;4.168;2023-05-07T00:09:02;18.20;99.90
19437;DHT22;9854;50.968;4.168;2023-05-07T00:11:29;18.20;99.90
19437;DHT22;9854;50.968;4.168;2023-05-07T00:13:55;18.20;99.90
19437;DHT22;9854;50.968;4.168;2023-05-07T00:16:21;18.10;99.90
19437;DHT22;9854;50.968;4.168;2023-05-07T00:18:47;18.10;99.90
19437;DHT22;9854;50.968;4.168;2023-05-07T00:21:12;18.20;99.90
19437;DHT22;9854;50.968;4.168;2023-05-07T00:23:38;18.20;99.90
19437;DHT22;9854;50.968;4.168;2023-05-07T00:26:04;18.10;99.90
19437;DHT22;9854;50.968;4.168;2023-05-07T00:28:30;18.10;99.90
19437;DHT22;9854;50.968;4.168;2023-05-07T00:30:55;18.00;99.90
19437;DHT22;9854;50.968;4.168;2023-05-07T00:33:21;18.00;99.90
19437;DHT22;9854;50.968;4.168;2023-05-07T00:35:47;18.00;99.90
19437;DHT22;9854;50.968;4.168;2023-05-07T00:38:13;18.00;99.90
19437;DHT22;9854;50.968;4.168;2023-05-07T00:40:39;17.90;99.90
19437;DHT22;9854;50.968;4.168;2023-05-07T00:43:05;17.90;99.90
19437;DHT22;9854;50.968;4.168;2023-05-07T00:45:33;17.90;99.90
19437;DHT22;9854;50.968;4.168;2023-05-07T00:48:00;17.80;99.90
19437;DHT22;9854;50.968;4.168;2023-05-07T00:50:26;17.80;99.90
19437;DHT22;9854;50.968;4.168;2023-05-07T00:52:53;17.80;99.90
19437;DHT22;9854;50.968;4.168;2023-05-07T00:55:19;17.70;99.90
19437;DHT22;9854;50.968;4.168;2023-05-07T00:57:45;17.70;99.90
19437;DHT22;9854;50.968;4.168;2023-05-07T01:00:11;17.70;99.90
19437;DHT22;9854;50.968;4.168;2023-05-07T01:02:41;17.60;99.90
19437;DHT22;9854;50.968;4.168;2023-05-07T01:05:17;17.60;99.90
19437;DHT22;9854;50.968;4.168;2023-05-07T01:07:44;17.50;99.90
19437;DHT22;9854;50.968;4.168;2023-05-07T01:10:11;17.40;99.90
19437;DHT22;9854;50.968;4.168;2023-05-07T01:12:39;17.40;99.90
19437;DHT22;9854;50.968;4.168;2023-05-07T01:15:06;17.40;99.90
19437;DHT22;9854;50.968;4.168;2023-05-07T01:17:37;17.30;99.90
19437;DHT22;9854;50.968;4.168;2023-05-07T01:20:04;17.30;99.90
19437;DHT22;9854;50.968;4.168;2023-05-07T01:22:34;17.30;99.90
19437;DHT22;9854;50.968;4.168;2023-05-07T01:25:02;17.30;99.90
19437;DHT22;9854;50.968;4.168;2023-05-07T01:27:28;17.20;99.90
19437;DHT22;9854;50.968;4.168;2023-05-07T01:29:54;17.20;99.90
19437;DHT22;9854;50.968;4.168;2023-05-07T01:32:27;17.30;99.90
19437;DHT22;9854;50.968;4.168;2023-05-07T01:34:53;17.30;99.90
19437;DHT22;9854;50.968;4.168;2023-05-07T01:37:20;17.20;99.90
19437;DHT22;9854;50.968;4.168;2023-05-07T01:39:47;17.20;99.90
19437;DHT22;9854;50.968;4.168;2023-05-07T01:42:13;17.20;99.90
19437;DHT22;9854;50.968;4.168;2023-05-07T01:44:39;17.10;99.90
19437;DHT22;9854;50.968;4.168;2023-05-07T01:47:06;17.00;99.90
19437;DHT22;9854;50.968;4.168;2023-05-07T01:49:31;17.00;99.90
19437;DHT22;9854;50.968;4.168;2023-05-07T01:51:58;17.00;99.90
19437;DHT22;9854;50.968;4.168;2023-05-07T01:54:27;16.90;99.90
19437;DHT22;9854;50.968;4.168;2023-05-07T01:56:58;16.90;99.90
19437;DHT22;9854;50.968;4.168;2023-05-07T01:59:24;16.80;99.90
19437;DHT22;9854;50.968;4.168;2023-05-07T02:01:50;16.80;99.90
19437;DHT22;9854;50.968;4.168;2023-05-07T02:04:16;16.80;99.90
19437;DHT22;9854;50.968;4.168;2023-05-07T02:06:41;16.80;99.90
19437;DHT22;9854;50.968;4.168;2023-05-07T02:09:07;16.80;99.90
19437;DHT22;9854;50.968;4.168;2023-05-07T02:11:34;16.80;99.90
19437;DHT22;9854;50.968;4.168;2023-05-07T02:14:00;16.80;99.90
19437;DHT22;9854;50.968;4.168;2023-05-07T02:16:25;16.80;99.90
19437;DHT22;9854;50.968;4.168;2023-05-07T02:18:51;16.80;99.90
19437;DHT22;9854;50.968;4.168;2023-05-07T02:21:17;16.90;99.90
19437;DHT22;9854;50.968;4.168;2023-05-07T02:23:42;17.10;99.90
19437;DHT22;9854;50.968;4.168;2023-05-07T02:26:09;17.10;99.90
19437;DHT22;9854;50.968;4.168;2023-05-07T02:28:35;17.10;99.90
19437;DHT22;9854;50.968;4.168;2023-05-07T02:31:04;17.10;99.90
19437;DHT22;9854;50.968;4.168;2023-05-07T02:33:30;17.00;99.90
19437;DHT22;9854;50.968;4.168;2023-05-07T02:35:56;17.00;99.90
19437;DHT22;9854;50.968;4.168;2023-05-07T02:38:22;16.90;99.90
19437;DHT22;9854;50.968;4.168;2023-05-07T02:40:48;16.80;99.90
19437;DHT22;9854;50.968;4.168;2023-05-07T02:43:13;16.90;99.90
19437;DHT22;9854;50.968;4.168;2023-05-07T02:45:39;16.90;99.90
19437;DHT22;9854;50.968;4.168;2023-05-07T02:48:05;17.00;99.90
19437;DHT22;9854;50.968;4.168;2023-05-07T02:50:31;17.00;99.90
19437;DHT22;9854;50.968;4.168;2023-05-07T02:52:58;17.00;99.90
19437;DHT22;9854;50.968;4.168;2023-05-07T02:55:24;17.00;99.90
19437;DHT22;9854;50.968;4.168;2023-05-07T02:57:50;17.10;99.90
19437;DHT22;9854;50.968;4.168;2023-05-07T03:00:17;17.30;99.90
19437;DHT22;9854;50.968;4.168;2023-05-07T03:02:44;17.30;99.90
19437;DHT22;9854;50.968;4.168;2023-05-07T03:05:10;17.30;99.90
19437;DHT22;9854;50.968;4.168;2023-05-07T03:07:37;17.20;99.90
19437;DHT22;9854;50.968;4.168;2023-05-07T03:10:03;17.10;99.90
19437;DHT22;9854;50.968;4.168;2023-05-07T03:12:29;17.10;99.90
19437;DHT22;9854;50.968;4.168;2023-05-07T03:14:55;17.20;99.90
19437;DHT22;9854;50.968;4.168;2023-05-07T03:17:21;17.20;99.90
19437;DHT22;9854;50.968;4.168;2023-05-07T03:19:47;17.10;99.90
19437;DHT22;9854;50.968;4.168;2023-05-07T03:22:12;17.10;99.90
19437;DHT22;9854;50.968;4.168;2023-05-07T03:24:38;17.10;99.90
19437;DHT22;9854;50.968;4.168;2023-05-07T03:27:03;17.10;99.90
19437;DHT22;9854;50.968;4.168;2023-05-07T03:29:29;17.00;99.90
19437;DHT22;9854;50.968;4.168;2023-05-07T03:31:55;17.00;99.90
19437;DHT22;9854;50.968;4.168;2023-05-07T03:34:20;17.00;99.90
19437;DHT22;9854;50.968;4.168;2023-05-07T03:36:50;16.90;99.90
19437;DHT22;9854;50.968;4.168;2023-05-07T03:39:16;16.90;99.90
19437;DHT22;9854;50.968;4.168;2023-05-07T03:41:42;16.90;99.90
19437;DHT22;9854;50.968;4.168;2023-05-07T03:44:07;17.00;99.90
19437;DHT22;9854;50.968;4.168;2023-05-07T03:46:34;17.00;99.90
19437;DHT22;9854;50.968;4.168;2023-05-07T03:49:00;17.20;99.90
19437;DHT22;9854;50.968;4.168;2023-05-07T03:51:25;17.20;99.90
19437;DHT22;9854;50.968;4.168;2023-05-07T03:53:51;17.20;99.90
19437;DHT22;9854;50.968;4.168;2023-05-07T03:56:18;17.10;99.90
19437;DHT22;9854;50.968;4.168;2023-05-07T03:58:44;17.10;99.90
19437;DHT22;9854;50.968;4.168;2023-05-07T04:01:10;17.00;99.90
19437;DHT22;9854;50.968;4.168;2023-05-07T04:03:36;16.90;99.90
19437;DHT22;9854;50.968;4.168;2023-05-07T04:06:02;16.90;99.90
19437;DHT22;9854;50.968;4.168;2023-05-07T04:08:28;16.80;99.90
19437;DHT22;9854;50.968;4.168;2023-05-07T04:10:57;16.80;99.90
19437;DHT22;9854;50.968;4.168;2023-05-07T04:13:24;16.80;99.90
19437;DHT22;9854;50.968;4.168;2023-05-07T04:15:51;16.90;99.90
19437;DHT22;9854;50.968;4.168;2023-05-07T04:18:16;16.90;99.90
19437;DHT22;9854;50.968;4.168;2023-05-07T04:20:42;16.90;99.90
19437;DHT22;9854;50.968;4.168;2023-05-07T04:23:08;17.00;99.90
19437;DHT22;9854;50.968;4.168;2023-05-07T04:25:34;17.00;99.90
19437;DHT22;9854;50.968;4.168;2023-05-07T04:28:00;17.00;99.90
19437;DHT22;9854;50.968;4.168;2023-05-07T04:30:25;16.90;99.90
19437;DHT22;9854;50.968;4.168;2023-05-07T04:32:52;16.90;99.90
19437;DHT22;9854;50.968;4.168;2023-05-07T04:35:18;16.90;99.90
19437;DHT22;9854;50.968;4.168;2023-05-07T04:37:44;16.90;99.90
19437;DHT22;9854;50.968;4.168;2023-05-07T04:40:10;17.10;99.90
19437;DHT22;9854;50.968;4.168;2023-05-07T04:42:36;17.30;99.90
19437;DHT22;9854;50.968;4.168;2023-05-07T04:45:02;17.30;99.90
19437;DHT22;9854;50.968;4.168;2023-05-07T04:47:28;17.40;99.90
19437;DHT22;9854;50.968;4.168;2023-05-07T04:49:53;17.50;99.90
19437;DHT22;9854;50.968;4.168;2023-05-07T04:52:19;17.40;99.90
19437;DHT22;9854;50.968;4.168;2023-05-07T04:54:45;17.30;99.90
19437;DHT22;9854;50.968;4.168;2023-05-07T04:57:11;17.10;99.90
19437;DHT22;9854;50.968;4.168;2023-05-07T04:59:36;17.00;99.90
19437;DHT22;9854;50.968;4.168;2023-05-07T05:02:02;17.00;99.90
19437;DHT22;9854;50.968;4.168;2023-05-07T05:04:29;17.10;99.90
19437;DHT22;9854;50.968;4.168;2023-05-07T05:06:55;17.40;99.90
19437;DHT22;9854;50.968;4.168;2023-05-07T05:09:21;17.40;99.90
19437;DHT22;9854;50.968;4.168;2023-05-07T05:11:47;17.40;99.90
19437;DHT22;9854;50.968;4.168;2023-05-07T05:14:12;17.40;99.90
19437;DHT22;9854;50.968;4.168;2023-05-07T05:16:38;17.40;99.90
19437;DHT22;9854;50.968;4.168;2023-05-07T05:19:04;17.40;99.90
19437;DHT22;9854;50.968;4.168;2023-05-07T05:21:30;17.40;99.90
19437;DHT22;9854;50.968;4.168;2023-05-07T05:23:56;17.50;99.90
19437;DHT22;9854;50.968;4.168;2023-05-07T05:26:21;17.40;99.90
19437;DHT22;9854;50.968;4.168;2023-05-07T05:28:47;17.40;99.90
19437;DHT22;9854;50.968;4.168;2023-05-07T05:31:13;17.40;99.90
19437;DHT22;9854;50.968;4.168;2023-05-07T05:33:39;17.50;99.90
19437;DHT22;9854;50.968;4.168;2023-05-07T05:36:06;17.50;99.90
19437;DHT22;9854;50.968;4.168;2023-05-07T05:38:32;17.60;99.90
19437;DHT22;9854;50.968;4.168;2023-05-07T05:40:57;17.60;99.90
19437;DHT22;9854;50.968;4.168;2023-05-07T05:43:23;17.70;99.90
19437;DHT22;9854;50.968;4.168;2023-05-07T05:45:49;17.70;99.90
19437;DHT22;9854;50.968;4.168;2023-05-07T05:48:14;17.90;99.90
19437;DHT22;9854;50.968;4.168;2023-05-07T05:50:41;17.80;99.90
19437;DHT22;9854;50.968;4.168;2023-05-07T05:53:07;17.80;99.90
19437;DHT22;9854;50.968;4.168;2023-05-07T05:55:33;17.70;99.90
19437;DHT22;9854;50.968;4.168;2023-05-07T05:58:00;17.70;99.90
19437;DHT22;9854;50.968;4.168;2023-05-07T06:00:26;17.60;99.90
19437;DHT22;9854;50.968;4.168;2023-05-07T06:02:52;17.50;99.90
19437;DHT22;9854;50.968;4.168;2023-05-07T06:05:18;17.40;99.90
19437;DHT22;9854;50.968;4.168;2023-05-07T06:07:43;17.50;99.90
19437;DHT22;9854;50.968;4.168;2023-05-07T06:10:09;17.70;99.90
19437;DHT22;9854;50.968;4.168;2023-05-07T06:12:35;17.80;99.90
19437;DHT22;9854;50.968;4.168;2023-05-07T06:15:00;17.90;99.90
19437;DHT22;9854;50.968;4.168;2023-05-07T06:17:27;17.90;99.90
19437;DHT22;9854;50.968;4.168;2023-05-07T06:19:52;18.00;99.90
19437;DHT22;9854;50.968;4.168;2023-05-07T06:22:18;18.00;99.90
19437;DHT22;9854;50.968;4.168;2023-05-07T06:24:44;18.00;99.90
19437;DHT22;9854;50.968;4.168;2023-05-07T06:27:09;18.10;99.90
19437;DHT22;9854;50.968;4.168;2023-05-07T06:29:35;18.00;99.90
19437;DHT22;9854;50.968;4.168;2023-05-07T06:32:11;17.90;99.90
19437;DHT22;9854;50.968;4.168;2023-05-07T06:34:38;18.00;99.90
19437;DHT22;9854;50.968;4.168;2023-05-07T06:37:05;18.00;99.90
19437;DHT22;9854;50.968;4.168;2023-05-07T06:39:30;18.00;99.90
19437;DHT22;9854;50.968;4.168;2023-05-07T06:41:56;18.10;99.90
19437;DHT22;9854;50.968;4.168;2023-05-07T06:44:22;18.00;99.90
19437;DHT22;9854;50.968;4.168;2023-05-07T06:46:48;18.20;99.90
19437;DHT22;9854;50.968;4.168;2023-05-07T06:49:14;18.10;99.90
19437;DHT22;9854;50.968;4.168;2023-05-07T06:51:39;18.10;99.90
19437;DHT22;9854;50.968;4.168;2023-05-07T06:54:05;18.00;99.90
19437;DHT22;9854;50.968;4.168;2023-05-07T06:56:32;17.90;99.90
19437;DHT22;9854;50.968;4.168;2023-05-07T06:58:57;17.90;99.90
19437;DHT22;9854;50.968;4.168;2023-05-07T07:01:23;18.00;99.90
19437;DHT22;9854;50.968;4.168;2023-05-07T07:03:49;17.80;99.90
19437;DHT22;9854;50.968;4.168;2023-05-07T07:06:14;17.70;99.90
19437;DHT22;9854;50.968;4.168;2023-05-07T07:08:40;17.70;99.90
19437;DHT22;9854;50.968;4.168;2023-05-07T07:11:06;17.70;99.90
19437;DHT22;9854;50.968;4.168;2023-05-07T07:13:32;17.70;99.90
19437;DHT22;9854;50.968;4.168;2023-05-07T07:15:58;17.90;99.90
19437;DHT22;9854;50.968;4.168;2023-05-07T07:18:24;17.80;99.90
19437;DHT22;9854;50.968;4.168;2023-05-07T07:20:50;17.60;99.90
19437;DHT22;9854;50.968;4.168;2023-05-07T07:23:16;17.70;99.90
19437;DHT22;9854;50.968;4.168;2023-05-07T07:25:41;17.60;99.90
19437;DHT22;9854;50.968;4.168;2023-05-07T07:28:07;17.70;99.90
19437;DHT22;9854;50.968;4.168;2023-05-07T07:30:33;17.70;99.90
19437;DHT22;9854;50.968;4.168;2023-05-07T07:32:58;17.60;99.90
19437;DHT22;9854;50.968;4.168;2023-05-07T07:35:29;17.50;99.90
19437;DHT22;9854;50.968;4.168;2023-05-07T07:37:55;17.60;99.90
19437;DHT22;9854;50.968;4.168;2023-05-07T07:40:21;17.60;99.90
19437;DHT22;9854;50.968;4.168;2023-05-07T07:42:47;17.70;99.90
19437;DHT22;9854;50.968;4.168;2023-05-07T07:45:12;17.80;99.90
19437;DHT22;9854;50.968;4.168;2023-05-07T07:47:39;17.70;99.90
19437;DHT22;9854;50.968;4.168;2023-05-07T07:50:06;17.80;99.90
19437;DHT22;9854;50.968;4.168;2023-05-07T07:52:32;17.90;99.90
19437;DHT22;9854;50.968;4.168;2023-05-07T07:54:58;18.10;99.90
19437;DHT22;9854;50.968;4.168;2023-05-07T07:57:23;18.10;99.90
19437;DHT22;9854;50.968;4.168;2023-05-07T07:59:50;18.30;99.90
19437;DHT22;9854;50.968;4.168;2023-05-07T08:02:16;18.20;99.90
19437;DHT22;9854;50.968;4.168;2023-05-07T08:04:42;18.20;99.90
19437;DHT22;9854;50.968;4.168;2023-05-07T08:07:11;18.20;99.90
19437;DHT22;9854;50.968;4.168;2023-05-07T08:09:37;18.30;99.90
19437;DHT22;9854;50.968;4.168;2023-05-07T08:12:04;18.50;99.90
19437;DHT22;9854;50.968;4.168;2023-05-07T08:14:30;18.40;99.90
19437;DHT22;9854;50.968;4.168;2023-05-07T08:16:56;18.60;99.90
19437;DHT22;9854;50.968;4.168;2023-05-07T08:19:22;18.70;99.90
19437;DHT22;9854;50.968;4.168;2023-05-07T08:21:48;18.70;99.90
19437;DHT22;9854;50.968;4.168;2023-05-07T08:24:14;18.70;99.90
19437;DHT22;9854;50.968;4.168;2023-05-07T08:26:41;18.70;99.90
19437;DHT22;9854;50.968;4.168;2023-05-07T08:29:07;18.80;99.90
19437;DHT22;9854;50.968;4.168;2023-05-07T08:31:33;19.10;99.90
19437;DHT22;9854;50.968;4.168;2023-05-07T08:33:59;19.10;99.90
19437;DHT22;9854;50.968;4.168;2023-05-07T08:36:25;19.10;99.90
19437;DHT22;9854;50.968;4.168;2023-05-07T08:38:52;19.20;99.90
19437;DHT22;9854;50.968;4.168;2023-05-07T08:41:18;19.40;99.90
19437;DHT22;9854;50.968;4.168;2023-05-07T08:43:47;19.40;99.90
19437;DHT22;9854;50.968;4.168;2023-05-07T08:46:19;19.50;99.90
19437;DHT22;9854;50.968;4.168;2023-05-07T08:48:48;19.50;99.90
19437;DHT22;9854;50.968;4.168;2023-05-07T08:51:17;19.70;99.90
19437;DHT22;9854;50.968;4.168;2023-05-07T08:53:43;19.70;99.90
19437;DHT22;9854;50.968;4.168;2023-05-07T08:56:09;19.70;99.90
19437;DHT22;9854;50.968;4.168;2023-05-07T08:58:35;19.80;99.90
19437;DHT22;9854;50.968;4.168;2023-05-07T09:01:08;19.80;99.90
19437;DHT22;9854;50.968;4.168;2023-05-07T09:03:36;19.60;99.90
19437;DHT22;9854;50.968;4.168;2023-05-07T09:06:03;19.50;99.90
19437;DHT22;9854;50.968;4.168;2023-05-07T09:08:29;19.70;99.90
19437;DHT22;9854;50.968;4.168;2023-05-07T09:10:54;19.80;99.90
19437;DHT22;9854;50.968;4.168;2023-05-07T09:13:21;19.60;99.90
19437;DHT22;9854;50.968;4.168;2023-05-07T09:15:46;19.20;99.90
19437;DHT22;9854;50.968;4.168;2023-05-07T09:18:12;19.20;99.90
19437;DHT22;9854;50.968;4.168;2023-05-07T09:20:39;19.20;99.90
19437;DHT22;9854;50.968;4.168;2023-05-07T09:23:06;19.40;99.90
19437;DHT22;9854;50.968;4.168;2023-05-07T09:25:33;19.70;99.90
19437;DHT22;9854;50.968;4.168;2023-05-07T09:28:00;20.00;99.90
19437;DHT22;9854;50.968;4.168;2023-05-07T09:30:30;20.00;99.90
19437;DHT22;9854;50.968;4.168;2023-05-07T09:33:01;19.80;99.90
19437;DHT22;9854;50.968;4.168;2023-05-07T09:35:27;19.80;99.90
19437;DHT22;9854;50.968;4.168;2023-05-07T09:37:53;19.70;99.90
19437;DHT22;9854;50.968;4.168;2023-05-07T09:40:25;19.70;99.90
19437;DHT22;9854;50.968;4.168;2023-05-07T09:42:51;19.80;99.90
19437;DHT22;9854;50.968;4.168;2023-05-07T09:45:25;19.90;99.90
19437;DHT22;9854;50.968;4.168;2023-05-07T09:47:55;19.90;99.90
19437;DHT22;9854;50.968;4.168;2023-05-07T09:50:30;19.80;99.90
19437;DHT22;9854;50.968;4.168;2023-05-07T09:52:58;19.70;99.90
19437;DHT22;9854;50.968;4.168;2023-05-07T09:55:24;19.70;99.90
19437;DHT22;9854;50.968;4.168;2023-05-07T09:57:52;19.70;99.90
19437;DHT22;9854;50.968;4.168;2023-05-07T10:00:21;19.80;99.90
19437;DHT22;9854;50.968;4.168;2023-05-07T10:02:48;19.80;99.90
19437;DHT22;9854;50.968;4.168;2023-05-07T10:05:15;20.00;99.90
19437;DHT22;9854;50.968;4.168;2023-05-07T10:07:41;20.00;99.90
19437;DHT22;9854;50.968;4.168;2023-05-07T10:10:08;20.00;99.90
19437;DHT22;9854;50.968;4.168;2023-05-07T10:12:35;20.00;99.90
19437;DHT22;9854;50.968;4.168;2023-05-07T10:15:06;20.00;99.90
19437;DHT22;9854;50.968;4.168;2023-05-07T10:17:38;20.10;99.90
19437;DHT22;9854;50.968;4.168;2023-05-07T10:20:08;19.60;99.90
19437;DHT22;9854;50.968;4.168;2023-05-07T10:22:39;19.40;99.90
19437;DHT22;9854;50.968;4.168;2023-05-07T10:25:20;19.50;99.90
19437;DHT22;9854;50.968;4.168;2023-05-07T10:27:47;19.70;99.90
19437;DHT22;9854;50.968;4.168;2023-05-07T10:32:56;19.80;99.90
19437;DHT22;9854;50.968;4.168;2023-05-07T10:35:32;19.90;99.90
19437;DHT22;9854;50.968;4.168;2023-05-07T10:38:02;20.00;99.90
19437;DHT22;9854;50.968;4.168;2023-05-07T10:40:28;20.30;99.90
19437;DHT22;9854;50.968;4.168;2023-05-07T10:45:20;20.30;99.90
19437;DHT22;9854;50.968;4.168;2023-05-07T10:48:11;20.30;99.90
19437;DHT22;9854;50.968;4.168;2023-05-07T10:50:39;20.80;99.90
19437;DHT22;9854;50.968;4.168;2023-05-07T10:55:49;20.90;99.90
19437;DHT22;9854;50.968;4.168;2023-05-07T11:00:50;20.80;99.90
19437;DHT22;9854;50.968;4.168;2023-05-07T11:03:17;20.60;99.90
19437;DHT22;9854;50.968;4.168;2023-05-07T11:05:42;20.80;99.90
19437;DHT22;9854;50.968;4.168;2023-05-07T11:08:09;21.10;99.90
19437;DHT22;9854;50.968;4.168;2023-05-07T11:10:55;21.30;99.90
19437;DHT22;9854;50.968;4.168;2023-05-07T11:13:44;21.80;99.90
19437;DHT22;9854;50.968;4.168;2023-05-07T11:16:23;21.80;99.90
19437;DHT22;9854;50.968;4.168;2023-05-07T11:18:54;22.00;99.90
19437;DHT22;9854;50.968;4.168;2023-05-07T11:21:36;22.10;99.90
19437;DHT22;9854;50.968;4.168;2023-05-07T11:24:03;21.90;99.90
19437;DHT22;9854;50.968;4.168;2023-05-07T11:26:31;21.90;99.90
19437;DHT22;9854;50.968;4.168;2023-05-07T11:28:57;22.30;99.90
19437;DHT22;9854;50.968;4.168;2023-05-07T11:31:26;22.20;99.90
19437;DHT22;9854;50.968;4.168;2023-05-07T11:33:54;22.20;99.90
19437;DHT22;9854;50.968;4.168;2023-05-07T11:36:22;22.30;99.90
19437;DHT22;9854;50.968;4.168;2023-05-07T11:38:47;22.20;99.90
19437;DHT22;9854;50.968;4.168;2023-05-07T11:41:13;21.90;99.90
19437;DHT22;9854;50.968;4.168;2023-05-07T11:43:53;21.90;99.90
19437;DHT22;9854;50.968;4.168;2023-05-07T11:46:20;22.00;99.90
19437;DHT22;9854;50.968;4.168;2023-05-07T11:48:45;22.10;99.90
19437;DHT22;9854;50.968;4.168;2023-05-07T11:51:11;21.90;99.90
19437;DHT22;9854;50.968;4.168;2023-05-07T11:53:40;21.90;99.90
19437;DHT22;9854;50.968;4.168;2023-05-07T11:56:07;21.80;99.90
19437;DHT22;9854;50.968;4.168;2023-05-07T11:58:33;21.90;99.90
19437;DHT22;9854;50.968;4.168;2023-05-07T12:00:59;21.90;99.90
19437;DHT22;9854;50.968;4.168;2023-05-07T12:03:25;21.90;99.90
19437;DHT22;9854;50.968;4.168;2023-05-07T12:05:51;22.10;99.90
19437;DHT22;9854;50.968;4.168;2023-05-07T12:08:18;22.20;99.90
19437;DHT22;9854;50.968;4.168;2023-05-07T12:10:45;22.20;99.90
19437;DHT22;9854;50.968;4.168;2023-05-07T12:13:20;22.30;99.90
19437;DHT22;9854;50.968;4.168;2023-05-07T12:15:46;22.30;99.90
19437;DHT22;9854;50.968;4.168;2023-05-07T12:18:15;22.40;99.90
19437;DHT22;9854;50.968;4.168;2023-05-07T12:20:41;22.70;99.90
19437;DHT22;9854;50.968;4.168;2023-05-07T12:23:07;22.70;99.90
19437;DHT22;9854;50.968;4.168;2023-05-07T12:25:37;22.30;99.90
19437;DHT22;9854;50.968;4.168;2023-05-07T12:28:03;22.20;99.90
19437;DHT22;9854;50.968;4.168;2023-05-07T12:30:39;22.00;99.90
19437;DHT22;9854;50.968;4.168;2023-05-07T12:33:05;21.90;99.90
19437;DHT22;9854;50.968;4.168;2023-05-07T12:35:31;21.90;99.90
19437;DHT22;9854;50.968;4.168;2023-05-07T12:37:58;22.20;99.90
19437;DHT22;9854;50.968;4.168;2023-05-07T12:40:35;22.20;99.90
19437;DHT22;9854;50.968;4.168;2023-05-07T12:43:01;22.30;99.90
19437;DHT22;9854;50.968;4.168;2023-05-07T12:45:27;22.40;99.90
19437;DHT22;9854;50.968;4.168;2023-05-07T12:47:53;22.40;99.90
19437;DHT22;9854;50.968;4.168;2023-05-07T12:50:18;22.30;99.90
19437;DHT22;9854;50.968;4.168;2023-05-07T12:52:47;22.10;99.90
19437;DHT22;9854;50.968;4.168;2023-05-07T12:55:14;21.90;99.90
19437;DHT22;9854;50.968;4.168;2023-05-07T12:57:47;21.80;99.90
19437;DHT22;9854;50.968;4.168;2023-05-07T13:00:13;21.90;99.90
19437;DHT22;9854;50.968;4.168;2023-05-07T13:02:40;22.10;99.90
19437;DHT22;9854;50.968;4.168;2023-05-07T13:05:07;21.90;99.90
19437;DHT22;9854;50.968;4.168;2023-05-07T13:07:33;21.80;99.90
19437;DHT22;9854;50.968;4.168;2023-05-07T13:09:59;22.10;99.90
19437;DHT22;9854;50.968;4.168;2023-05-07T13:12:24;22.20;99.90
19437;DHT22;9854;50.968;4.168;2023-05-07T13:14:50;21.90;99.90
19437;DHT22;9854;50.968;4.168;2023-05-07T13:17:15;21.90;99.90
19437;DHT22;9854;50.968;4.168;2023-05-07T13:19:41;21.60;99.90
19437;DHT22;9854;50.968;4.168;2023-05-07T13:22:07;21.60;99.90
19437;DHT22;9854;50.968;4.168;2023-05-07T13:24:33;21.80;99.90
19437;DHT22;9854;50.968;4.168;2023-05-07T13:26:58;21.40;99.90
19437;DHT22;9854;50.968;4.168;2023-05-07T13:29:24;21.40;99.90
19437;DHT22;9854;50.968;4.168;2023-05-07T13:31:54;21.40;99.90
19437;DHT22;9854;50.968;4.168;2023-05-07T13:34:20;21.10;99.90
19437;DHT22;9854;50.968;4.168;2023-05-07T13:36:46;21.20;99.90
19437;DHT22;9854;50.968;4.168;2023-05-07T13:39:12;21.50;99.90
19437;DHT22;9854;50.968;4.168;2023-05-07T13:41:37;21.60;99.90
19437;DHT22;9854;50.968;4.168;2023-05-07T13:44:03;21.60;99.90
19437;DHT22;9854;50.968;4.168;2023-05-07T13:46:29;21.60;99.90
19437;DHT22;9854;50.968;4.168;2023-05-07T13:48:55;21.80;99.90
19437;DHT22;9854;50.968;4.168;2023-05-07T13:51:21;21.40;99.90
19437;DHT22;9854;50.968;4.168;2023-05-07T13:53:47;21.20;99.90
19437;DHT22;9854;50.968;4.168;2023-05-07T13:56:13;21.20;99.90
19437;DHT22;9854;50.968;4.168;2023-05-07T13:58:39;21.30;99.90
19437;DHT22;9854;50.968;4.168;2023-05-07T14:01:05;21.60;99.90
19437;DHT22;9854;50.968;4.168;2023-05-07T14:03:31;22.00;99.90
19437;DHT22;9854;50.968;4.168;2023-05-07T14:05:59;22.20;99.90
19437;DHT22;9854;50.968;4.168;2023-05-07T14:08:25;22.00;99.90
19437;DHT22;9854;50.968;4.168;2023-05-07T14:10:51;22.10;99.90
19437;DHT22;9854;50.968;4.168;2023-05-07T14:13:17;22.00;99.90
19437;DHT22;9854;50.968;4.168;2023-05-07T14:15:43;22.00;99.90
19437;DHT22;9854;50.968;4.168;2023-05-07T14:18:12;21.70;99.90
19437;DHT22;9854;50.968;4.168;2023-05-07T14:20:38;21.60;99.90
19437;DHT22;9854;50.968;4.168;2023-05-07T14:23:04;21.70;99.90
19437;DHT22;9854;50.968;4.168;2023-05-07T14:25:29;21.80;99.90
19437;DHT22;9854;50.968;4.168;2023-05-07T14:27:55;22.10;99.90
19437;DHT22;9854;50.968;4.168;2023-05-07T14:30:21;22.00;99.90
19437;DHT22;9854;50.968;4.168;2023-05-07T14:32:49;21.90;99.90
19437;DHT22;9854;50.968;4.168;2023-05-07T14:35:15;22.00;99.90
19437;DHT22;9854;50.968;4.168;2023-05-07T14:37:41;22.20;99.90
19437;DHT22;9854;50.968;4.168;2023-05-07T14:40:07;22.60;99.90
19437;DHT22;9854;50.968;4.168;2023-05-07T14:42:33;22.50;99.90
19437;DHT22;9854;50.968;4.168;2023-05-07T14:44:58;22.50;99.90
19437;DHT22;9854;50.968;4.168;2023-05-07T14:47:24;22.40;99.90
19437;DHT22;9854;50.968;4.168;2023-05-07T14:49:50;22.50;99.90
19437;DHT22;9854;50.968;4.168;2023-05-07T14:52:16;22.90;99.90
19437;DHT22;9854;50.968;4.168;2023-05-07T14:54:42;23.10;99.90
19437;DHT22;9854;50.968;4.168;2023-05-07T14:57:09;22.80;99.90
19437;DHT22;9854;50.968;4.168;2023-05-07T14:59:35;22.70;99.90
19437;DHT22;9854;50.968;4.168;2023-05-07T15:02:02;22.70;99.90
19437;DHT22;9854;50.968;4.168;2023-05-07T15:04:30;23.10;99.90
19437;DHT22;9854;50.968;4.168;2023-05-07T15:06:56;23.30;99.90
19437;DHT22;9854;50.968;4.168;2023-05-07T15:09:22;23.30;99.90
19437;DHT22;9854;50.968;4.168;2023-05-07T15:11:47;23.30;99.90
19437;DHT22;9854;50.968;4.168;2023-05-07T15:14:13;23.10;99.90
19437;DHT22;9854;50.968;4.168;2023-05-07T15:16:38;23.20;99.90
19437;DHT22;9854;50.968;4.168;2023-05-07T15:19:04;23.70;99.90
19437;DHT22;9854;50.968;4.168;2023-05-07T15:21:30;23.90;99.90
19437;DHT22;9854;50.968;4.168;2023-05-07T15:23:58;24.00;99.90
19437;DHT22;9854;50.968;4.168;2023-05-07T15:26:23;24.20;99.90
19437;DHT22;9854;50.968;4.168;2023-05-07T15:28:50;23.70;99.90
19437;DHT22;9854;50.968;4.168;2023-05-07T15:31:16;23.90;99.90
19437;DHT22;9854;50.968;4.168;2023-05-07T15:33:42;24.00;99.90
19437;DHT22;9854;50.968;4.168;2023-05-07T15:36:08;23.90;99.90
19437;DHT22;9854;50.968;4.168;2023-05-07T15:38:34;23.90;99.90
19437;DHT22;9854;50.968;4.168;2023-05-07T15:40:59;23.90;99.90
19437;DHT22;9854;50.968;4.168;2023-05-07T15:43:25;23.70;99.90
19437;DHT22;9854;50.968;4.168;2023-05-07T15:45:51;23.30;99.90
19437;DHT22;9854;50.968;4.168;2023-05-07T15:48:16;23.00;99.90
19437;DHT22;9854;50.968;4.168;2023-05-07T15:50:42;22.80;99.90
19437;DHT22;9854;50.968;4.168;2023-05-07T15:53:08;22.90;99.90